Time;durP1;ratioP1;P1;durP2;ratioP2;P2;SDS_P1;SDS_P2;PMS_P1;PMS_P2;Temp;Humidity;BMP_temperature;BMP_pressure;BME280_temperature;BME280_humidity;BME280_pressure;Samples;Min_cycle;Max_cycle;Signal;HPM_P1;HPM_P2
2021/03/02 00:05:44;;;;;;;;;;;;;;;;;;;;;
2021/03/02 00:08:27;;;;;;;;;;;;;;;;;;;;;
2021/03/02 00:17:46;;;;;;;;;;;;;;;;;;;;;
2021/03/02 00:20:46;;;;;;;35.47;20.20;;;5.10;90.30;;;;;;6245140;23;20079;-88
2021/03/02 00:23:28;;;;;;;;;;;;;;;;;;;;;
2021/03/02 00:26:05;;;;;;;34.20;20.15;;;5.00;90.30;;;;;;6244806;23;20076;-89
2021/03/02 00:29:13;;;;;;;;;;;;;;;;;;;;;
2021/03/02 00:32:13;;;;;;;;;;;;;;;;;;;;;
2021/03/02 00:35:04;;;;;;;;;;;;;;;;;;;;;
2021/03/02 00:37:57;;;;;;;34.38;19.10;;;4.90;90.40;;;;;;6246934;23;20075;-89
2021/03/02 00:40:55;;;;;;;38.92;21.13;;;4.90;90.40;;;;;;6212304;23;20008;-89
2021/03/02 00:43:37;;;;;;;34.08;19.42;;;4.90;90.40;;;;;;6201292;23;20048;-89
2021/03/02 00:46:31;;;;;;;;;;;;;;;;;;;;;
2021/03/02 00:49:06;;;;;;;36.30;20.17;;;4.80;90.40;;;;;;6216643;23;20083;-89
2021/03/02 00:51:54;;;;;;;33.35;19.88;;;4.80;90.50;;;;;;6214448;23;20058;-89
2021/03/02 00:54:45;;;;;;;37.33;19.52;;;4.80;90.50;;;;;;6214845;23;20071;-90
2021/03/02 00:57:48;;;;;;;36.30;20.25;;;4.80;90.50;;;;;;6192249;23;20439;-90
2021/03/02 01:00:46;;;;;;;35.78;19.33;;;4.80;90.50;;;;;;6213043;23;20001;-88
2021/03/02 01:03:42;;;;;;;;;;;;;;;;;;;;;
2021/03/02 01:06:47;;;;;;;38.17;21.20;;;4.70;90.50;;;;;;6214153;23;20036;-90
2021/03/02 01:09:41;;;;;;;38.60;20.55;;;4.60;90.60;;;;;;6193542;23;20020;-89
2021/03/02 01:12:28;;;;;;;;;;;;;;;;;;;;;
2021/03/02 01:15:32;;;;;;;37.72;21.75;;;4.70;90.60;;;;;;6215450;23;20056;-89
2021/03/02 01:19:05;;;;;;;38.20;21.45;;;4.60;90.70;;;;;;6212805;23;20498;-89
2021/03/02 01:21:59;;;;;;;;;;;;;;;;;;;;;
2021/03/02 01:24:40;;;;;;;39.15;21.48;;;4.60;90.80;;;;;;6092498;23;20066;-90
2021/03/02 01:27:13;;;;;;;39.92;21.58;;;4.50;90.80;;;;;;6161715;23;20058;-89
2021/03/02 01:33:19;;;;;;;41.10;21.88;;;4.50;90.90;;;;;;6214572;23;20070;-90
2021/03/02 01:36:08;;;;;;;41.03;21.95;;;4.40;90.90;;;;;;6171855;23;20009;-90
2021/03/02 01:38:47;;;;;;;;;;;;;;;;;;;;;
2021/03/02 01:41:39;;;;;;;40.80;21.70;;;4.40;91.00;;;;;;6214420;23;20071;-88
2021/03/02 01:44:22;;;;;;;;;;;;;;;;;;;;;
2021/03/02 01:47:08;;;;;;;38.00;19.77;;;4.40;90.90;;;;;;6220825;23;20387;-88
2021/03/02 01:49:47;;;;;;;36.60;18.77;;;4.40;90.90;;;;;;6217885;23;20008;-89
2021/03/02 01:52:15;;;;;;;41.70;21.35;;;4.40;90.90;;;;;;6217230;23;20058;-89
2021/03/02 01:55:28;;;;;;;43.35;23.08;;;4.40;90.90;;;;;;6218903;23;20024;-88
2021/03/02 01:57:58;;;;;;;41.75;23.00;;;4.40;90.90;;;;;;6237589;23;20011;-89
2021/03/02 02:04:51;;;;;;;49.78;25.48;;;4.30;90.90;;;;;;6242343;23;20006;-87
2021/03/02 02:14:48;;;;;;;;;;;;;;;;;;;;;
2021/03/02 02:17:11;;;;;;;42.22;21.67;;;4.10;91.20;;;;;;6234029;23;20012;-88
2021/03/02 02:20:20;;;;;;;48.60;24.98;;;4.10;91.30;;;;;;6217846;23;20004;-89
2021/03/02 02:23:30;;;;;;;42.08;21.85;;;4.10;91.30;;;;;;6219343;23;20000;-88
2021/03/02 02:26:19;;;;;;;45.03;22.98;;;4.10;91.30;;;;;;6162240;23;20005;-87
2021/03/02 02:29:02;;;;;;;48.25;24.42;;;4.10;91.20;;;;;;6217735;23;20034;-89
2021/03/02 02:31:47;;;;;;;;;;;;;;;;;;;;;
2021/03/02 02:37:16;;;;;;;46.67;23.58;;;4.00;91.30;;;;;;6246394;23;20004;-91
2021/03/02 02:39:50;;;;;;;48.13;25.17;;;4.00;91.30;;;;;;6218750;23;20043;-88
2021/03/02 02:42:42;;;;;;;50.83;25.05;;;4.00;91.30;;;;;;6171307;23;20004;-89
2021/03/02 02:45:37;;;;;;;;;;;4.00;91.40;;;;;;6201641;23;20204;-89
2021/03/02 02:48:28;;;;;;;;;;;;;;;;;;;;;
2021/03/02 02:54:18;;;;;;;;;;;;;;;;;;;;;
2021/03/02 02:56:54;;;;;;;47.00;24.52;;;3.80;91.50;;;;;;6246620;23;20072;-89
2021/03/02 03:00:11;;;;;;;48.35;24.58;;;3.80;91.60;;;;;;6196602;23;20008;-89
2021/03/02 03:03:06;;;;;;;47.42;24.95;;;3.80;91.60;;;;;;6220472;23;20008;-90
2021/03/02 03:05:54;;;;;;;49.08;25.17;;;3.80;91.60;;;;;;6199747;23;20032;-88
2021/03/02 03:08:34;;;;;;;46.53;24.10;;;3.80;91.60;;;;;;6220584;23;20039;-88
2021/03/02 03:11:09;;;;;;;46.75;24.17;;;3.70;91.60;;;;;;6242828;23;20004;-87
2021/03/02 03:13:54;;;;;;;52.95;25.77;;;3.70;91.60;;;;;;6248866;23;19997;-89
2021/03/02 03:16:49;;;;;;;49.17;25.33;;;3.70;91.60;;;;;;6222154;23;20001;-89
2021/03/02 03:19:48;;;;;;;51.60;25.40;;;3.70;91.60;;;;;;6213282;23;20004;-89
2021/03/02 03:22:19;;;;;;;53.15;26.45;;;3.70;91.70;;;;;;6248114;23;20003;-88
2021/03/02 03:24:59;;;;;;;50.60;25.98;;;3.70;91.60;;;;;;6224870;23;20491;-88
2021/03/02 03:28:03;;;;;;;;;;;;;;;;;;;;;
2021/03/02 03:30:54;;;;;;;47.25;24.75;;;3.60;91.70;;;;;;6101691;23;20049;-88
2021/03/02 03:33:43;;;;;;;;;;;;;;;;;;;;;
2021/03/02 03:36:24;;;;;;;;;;;;;;;;;;;;;
2021/03/02 03:39:02;;;;;;;51.78;25.33;;;3.60;91.70;;;;;;6095635;23;20101;-89
2021/03/02 03:41:51;;;;;;;;;;;;;;;;;;;;;
2021/03/02 03:44:21;;;;;;;48.58;24.88;;;3.50;91.70;;;;;;6214766;23;20095;-89
2021/03/02 03:46:52;;;;;;;50.75;24.42;;;3.50;91.80;;;;;;6214477;23;20016;-89
2021/03/02 03:49:33;;;;;;;55.00;26.17;;;3.50;91.80;;;;;;6215654;23;20488;-90
2021/03/02 03:52:34;;;;;;;48.17;24.60;;;3.50;91.80;;;;;;6190551;23;20445;-89
2021/03/02 03:55:08;;;;;;;56.75;27.35;;;3.50;91.90;;;;;;6188550;23;20797;-87
2021/03/02 03:57:37;;;;;;;55.47;26.85;;;3.50;91.80;;;;;;6215625;23;20001;-88
2021/03/02 04:03:41;;;;;;;56.60;26.17;;;3.40;92.00;;;;;;6210839;23;20024;-88
2021/03/02 04:12:59;;;;;;;53.20;26.48;;;3.30;92.10;;;;;;6199803;23;20016;-90
2021/03/02 04:15:52;;;;;;;53.15;25.10;;;3.40;92.20;;;;;;6094523;23;20007;-89
2021/03/02 04:21:47;;;;;;;49.28;25.55;;;3.40;92.10;;;;;;6215991;23;20012;-88
2021/03/02 04:24:32;;;;;;;49.78;25.55;;;3.30;92.10;;;;;;6215291;23;20007;-88
2021/03/02 04:27:24;;;;;;;47.15;23.90;;;3.30;92.10;;;;;;6216246;23;20004;-86
2021/03/02 04:29:58;;;;;;;49.60;25.42;;;3.40;92.20;;;;;;6192824;23;20020;-89
2021/03/02 04:32:53;;;;;;;46.72;24.13;;;3.40;92.10;;;;;;6210877;23;20059;-89
2021/03/02 04:35:37;;;;;;;46.60;23.98;;;3.40;92.10;;;;;;6188047;23;20005;-88
2021/03/02 04:38:08;;;;;;;45.42;23.83;;;3.40;92.10;;;;;;6214144;23;20009;-89
2021/03/02 04:41:01;;;;;;;;;;;;;;;;;;;;;
2021/03/02 04:43:35;;;;;;;43.95;23.00;;;3.40;92.10;;;;;;6196742;23;20048;-88
2021/03/02 04:46:04;;;;;;;46.30;23.17;;;3.40;92.00;;;;;;6197510;23;20455;-90
2021/03/02 04:48:37;;;;;;;50.42;23.70;;;3.40;92.00;;;;;;6224047;23;20011;-89
2021/03/02 04:51:22;;;;;;;46.65;24.30;;;3.40;92.10;;;;;;6209555;23;20008;-89
2021/03/02 04:53:56;;;;;;;46.13;24.20;;;3.40;92.10;;;;;;6193111;23;20508;-87
2021/03/02 04:56:46;;;;;;;47.50;24.73;;;3.40;92.10;;;;;;6240047;23;20004;-88
2021/03/02 04:59:36;;;;;;;47.25;25.45;;;3.30;92.10;;;;;;6243386;23;20013;-89
2021/03/02 05:02:10;;;;;;;47.33;24.45;;;3.40;92.10;;;;;;6247820;23;20008;-87
2021/03/02 05:05:15;;;;;;;;;;;;;;;;;;;;;
2021/03/02 05:07:53;;;;;;;;;;;;;;;;;;;;;
2021/03/02 05:10:55;;;;;;;;;;;;;;;;;;;;;
2021/03/02 05:14:12;;;;;;;;;;;;;;;;;;;;;
2021/03/02 05:31:41;;;;;;;;;;;;;;;;;;;;;
2021/03/02 05:35:13;;;;;;;;;;;;;;;;;;;;;
2021/03/02 05:37:43;;;;;;;52.67;27.02;;;3.20;92.20;;;;;;6005758;23;20442;-93
2021/03/02 05:40:44;;;;;;;54.78;26.58;;;3.20;92.20;;;;;;5964288;23;20390;-89
2021/03/02 05:43:43;;;;;;;52.13;27.00;;;3.10;92.30;;;;;;5985213;23;20007;-87
2021/03/02 05:46:43;;;;;;;;;;;;;;;;;;;;;
2021/03/02 05:49:46;;;;;;;;;;;;;;;;;;;;;
2021/03/02 05:56:49;;;;;;;52.33;26.08;;;3.00;92.30;;;;;;5985841;23;20006;-90
2021/03/02 06:00:08;;;;;;;;;;;;;;;;;;;;;
2021/03/02 06:06:37;;;;;;;48.03;23.83;;;3.10;92.40;;;;;;6099086;23;20385;-93
2021/03/02 06:09:47;;;;;;;;;;;;;;;;;;;;;
2021/03/02 06:13:08;;;;;;;48.00;23.25;;;3.10;92.30;;;;;;6218014;23;20083;-93
2021/03/02 06:16:35;;;;;;;;;;;;;;;;;;;;;
2021/03/02 06:20:14;;;;;;;;;;;;;;;;;;;;;
2021/03/02 06:26:42;;;;;;;;;;;;;;;;;;;;;
2021/03/02 06:30:01;;;;;;;;;;;;;;;;;;;;;
2021/03/02 06:53:51;;;;;;;59.30;27.45;;;3.00;92.70;;;;;;5824443;24;20530;-93
2021/03/02 06:57:37;;;;;;;;;;;;;;;;;;;;;
2021/03/02 07:14:17;;;;;;;55.10;27.30;;;3.10;92.90;;;;;;5910837;24;20009;-96
2021/03/02 07:20:40;;;;;;;;;;;;;;;;;;;;;
2021/03/02 07:23:44;;;;;;;;;;;;;;;;;;;;;
2021/03/02 07:27:06;;;;;;;;;;;;;;;;;;;;;
2021/03/02 07:48:01;;;;;;;;;;;;;;;;;;;;;
2021/03/02 07:54:45;;;;;;;;;;;;;;;;;;;;;
2021/03/02 07:58:06;;;;;;;;;;;;;;;;;;;;;
2021/03/02 08:04:57;;;;;;;;;;;;;;;;;;;;;
2021/03/02 08:35:35;;;;;;;;;;;;;;;;;;;;;
2021/03/02 09:00:10;;;;;;;;;;;;;;;;;;;;;
2021/03/02 09:27:14;;;;;;;34.45;19.17;;;5.70;90.60;;;;;;5981621;24;20008;-91
2021/03/02 09:48:10;;;;;;;;;;;;;;;;;;;;;
2021/03/02 09:54:04;;;;;;;25.77;16.50;;;6.60;90.00;;;;;;5899483;24;20021;-92
2021/03/02 09:57:10;;;;;;;;;;;;;;;;;;;;;
2021/03/02 10:21:17;;;;;;;;;;;;;;;;;;;;;
2021/03/02 10:24:25;;;;;;;;;;;;;;;;;;;;;
2021/03/02 10:27:42;;;;;;;24.13;15.90;;;7.60;89.60;;;;;;5979667;24;20098;-90
2021/03/02 10:34:43;;;;;;;;;;;;;;;;;;;;;
2021/03/02 10:56:26;;;;;;;;;;;;;;;;;;;;;
2021/03/02 10:59:50;;;;;;;14.05;9.85;;;8.90;85.40;;;;;;5955604;24;20061;-91
2021/03/02 11:03:21;;;;;;;;;;;;;;;;;;;;;
2021/03/02 11:06:29;;;;;;;;;;;;;;;;;;;;;
2021/03/02 11:16:42;;;;;;;;;;;;;;;;;;;;;
2021/03/02 11:20:06;;;;;;;17.02;12.05;;;9.50;83.90;;;;;;6158042;23;20218;-91
2021/03/02 11:22:43;;;;;;;17.02;11.82;;;9.70;83.10;;;;;;6018681;23;20091;-91
2021/03/02 11:25:53;;;;;;;18.35;12.25;;;9.80;83.10;;;;;;6041250;23;20003;-90
2021/03/02 11:28:38;;;;;;;;;;;;;;;;;;;;;
2021/03/02 11:34:51;;;;;;;;;;;;;;;;;;;;;
2021/03/02 11:38:14;;;;;;;;;;;;;;;;;;;;;
2021/03/02 11:40:59;;;;;;;;;;;;;;;;;;;;;
2021/03/02 11:44:31;;;;;;;;;;;;;;;;;;;;;
2021/03/02 11:47:38;;;;;;;;;;;;;;;;;;;;;
2021/03/02 11:50:15;;;;;;;17.17;11.32;;;10.50;80.50;;;;;;6101566;23;20093;-90
2021/03/02 11:52:55;;;;;;;15.77;11.40;;;10.60;79.90;;;;;;6165516;23;20008;-90
2021/03/02 11:55:36;;;;;;;;;;;;;;;;;;;;;
2021/03/02 12:01:48;;;;;;;;;;;;;;;;;;;;;
2021/03/02 12:04:57;;;;;;;16.10;10.70;;;10.80;80.30;;;;;;6225635;23;20080;-89
2021/03/02 12:08:19;;;;;;;;;;;;;;;;;;;;;
2021/03/02 12:11:31;;;;;;;13.93;10.63;;;10.90;79.50;;;;;;6242904;23;20088;-91
2021/03/02 12:14:38;;;;;;;15.95;10.80;;;11.00;79.30;;;;;;6223885;23;20000;-92
2021/03/02 12:17:34;;;;;;;16.10;11.15;;;11.20;78.90;;;;;;6247343;23;20434;-91
2021/03/02 12:20:46;;;;;;;15.30;10.82;;;11.20;78.90;;;;;;6195183;23;20217;-89
2021/03/02 12:23:23;;;;;;;15.40;10.60;;;11.30;78.30;;;;;;6224319;23;20308;-91
2021/03/02 12:26:59;;;;;;;;;;;;;;;;;;;;;
2021/03/02 12:30:10;;;;;;;15.77;10.75;;;11.50;77.40;;;;;;6255231;23;20012;-89
2021/03/02 12:33:01;;;;;;;;;;;;;;;;;;;;;
2021/03/02 12:36:28;;;;;;;;;;;;;;;;;;;;;
2021/03/02 12:38:57;;;;;;;;;;;;;;;;;;;;;
2021/03/02 12:42:10;;;;;;;14.80;11.23;;;11.80;76.50;;;;;;6242283;23;20000;-90
2021/03/02 12:44:58;;;;;;;17.40;10.95;;;11.90;75.40;;;;;;6209387;23;20042;-89
2021/03/02 12:51:31;;;;;;;;;;;;;;;;;;;;;
2021/03/02 12:54:16;;;;;;;14.68;10.07;;;12.00;74.80;;;;;;6077017;23;20022;-91
2021/03/02 13:00:18;;;;;;;;;;;;;;;;;;;;;
2021/03/02 13:03:16;;;;;;;15.10;10.77;;;12.30;73.40;;;;;;6222171;23;20091;-88
2021/03/02 13:06:09;;;;;;;;;;;;;;;;;;;;;
2021/03/02 13:09:59;;;;;;;17.02;10.95;;;12.40;72.60;;;;;;6224351;23;20063;-89
2021/03/02 13:12:32;;;;;;;;;;;;;;;;;;;;;
2021/03/02 13:19:25;;;;;;;;;;;;;;;;;;;;;
2021/03/02 13:25:55;;;;;;;;;;;;;;;;;;;;;
2021/03/02 13:39:42;;;;;;;;;;;;;;;;;;;;;
2021/03/02 13:42:37;;;;;;;14.57;9.75;;;12.60;74.20;;;;;;6088719;23;20090;-91
2021/03/02 13:45:56;;;;;;;;;;;;;;;;;;;;;
2021/03/02 13:48:39;;;;;;;;;;;;;;;;;;;;;
2021/03/02 13:55:08;;;;;;;;;;;;;;;;;;;;;
2021/03/02 14:05:04;;;;;;;;;;;;;;;;;;;;;
2021/03/02 14:11:17;;;;;;;;;;;;;;;;;;;;;
2021/03/02 14:14:10;;;;;;;;;;;;;;;;;;;;;
2021/03/02 14:17:02;;;;;;;14.75;11.07;;;12.90;73.20;;;;;;6103108;23;20077;-89
2021/03/02 14:20:31;;;;;;;16.85;11.30;;;13.00;73.20;;;;;;6076139;23;20037;-89
2021/03/02 14:34:18;;;;;;;15.63;11.38;;;13.00;72.60;;;;;;5987431;23;20040;-91
2021/03/02 14:37:33;;;;;;;17.02;10.82;;;13.10;72.70;;;;;;6026115;23;20012;-90
2021/03/02 14:40:38;;;;;;;15.20;11.23;;;13.10;72.40;;;;;;6100193;23;20006;-91
2021/03/02 14:43:50;;;;;;;15.25;10.48;;;13.10;72.40;;;;;;6188305;23;20063;-89
2021/03/02 14:46:46;;;;;;;;;;;;;;;;;;;;;
2021/03/02 14:53:01;;;;;;;14.13;10.43;;;13.10;72.60;;;;;;6233905;23;20019;-90
2021/03/02 14:56:01;;;;;;;;;;;;;;;;;;;;;
2021/03/02 14:58:45;;;;;;;15.40;10.65;;;13.10;72.70;;;;;;6248278;23;20305;-90
2021/03/02 15:05:41;;;;;;;;;;;;;;;;;;;;;
2021/03/02 15:15:29;;;;;;;14.95;10.40;;;13.20;71.90;;;;;;6213625;23;20079;-90
2021/03/02 15:26:02;;;;;;;;;;;;;;;;;;;;;
2021/03/02 15:32:35;;;;;;;;;;;;;;;;;;;;;
2021/03/02 15:36:06;;;;;;;14.35;9.90;;;14.30;69.20;;;;;;6098828;23;20081;-90
2021/03/02 15:38:40;;;;;;;;;;;;;;;;;;;;;
2021/03/02 15:42:08;;;;;;;;;;;;;;;;;;;;;
2021/03/02 15:48:12;;;;;;;14.60;10.52;;;13.90;68.50;;;;;;6040316;23;20532;-90
2021/03/02 15:57:39;;;;;;;;;;;;;;;;;;;;;
2021/03/02 16:08:01;;;;;;;;;;;;;;;;;;;;;
2021/03/02 16:11:17;;;;;;;;;;;;;;;;;;;;;
2021/03/02 16:17:58;;;;;;;;;;;;;;;;;;;;;
2021/03/02 16:27:20;;;;;;;15.43;9.93;;;13.00;68.60;;;;;;5981671;24;20008;-90
2021/03/02 16:33:37;;;;;;;16.63;10.13;;;12.90;69.20;;;;;;6078137;23;20414;-91
2021/03/02 16:37:27;;;;;;;;;;;;;;;;;;;;;
2021/03/02 16:39:45;;;;;;;16.17;10.77;;;12.70;69.60;;;;;;6059209;23;20494;-89
2021/03/02 16:42:42;;;;;;;17.88;10.90;;;12.70;69.90;;;;;;6066066;23;20504;-91
2021/03/02 16:45:42;;;;;;;17.55;10.23;;;12.60;70.00;;;;;;6214670;23;20083;-89
2021/03/02 16:49:04;;;;;;;;;;;;;;;;;;;;;
2021/03/02 16:52:17;;;;;;;14.63;10.02;;;12.50;70.30;;;;;;6245254;23;20050;-89
2021/03/02 16:55:38;;;;;;;17.73;11.35;;;12.40;70.70;;;;;;6218526;23;20492;-87
2021/03/02 16:58:39;;;;;;;17.15;11.07;;;12.30;71.00;;;;;;6220169;23;20027;-90
2021/03/02 17:01:42;;;;;;;;;;;;;;;;;;;;;
2021/03/02 17:04:33;;;;;;;;;;;;;;;;;;;;;
2021/03/02 17:10:22;;;;;;;16.88;11.05;;;11.90;72.20;;;;;;6194342;23;20012;-90
2021/03/02 17:13:41;;;;;;;;;;;;;;;;;;;;;
2021/03/02 17:16:52;;;;;;;17.70;10.85;;;11.70;73.30;;;;;;6240892;23;20080;-90
2021/03/02 17:19:47;;;;;;;;;;;;;;;;;;;;;
2021/03/02 17:23:43;;;;;;;17.75;11.07;;;11.50;73.40;;;;;;6223411;23;20083;-90
2021/03/02 17:29:04;;;;;;;15.93;11.40;;;11.40;74.50;;;;;;6211463;23;20004;-88
2021/03/02 17:32:03;;;;;;;;;;;;;;;;;;;;;
2021/03/02 17:35:43;;;;;;;;;;;;;;;;;;;;;
2021/03/02 17:41:58;;;;;;;18.17;11.90;;;11.10;75.30;;;;;;6231789;23;20016;-89
2021/03/02 17:45:01;;;;;;;;;;;;;;;;;;;;;
2021/03/02 17:54:42;;;;;;;;;;;;;;;;;;;;;
2021/03/02 18:00:48;;;;;;;17.80;11.82;;;10.60;75.60;;;;;;6263164;23;20039;-90
2021/03/02 18:03:31;;;;;;;;;;;;;;;;;;;;;
2021/03/02 18:09:46;;;;;;;;;;;;;;;;;;;;;
2021/03/02 18:13:12;;;;;;;;;;;;;;;;;;;;;
2021/03/02 18:23:35;;;;;;;18.75;12.90;;;9.90;77.20;;;;;;6001705;23;20023;-88
2021/03/02 18:27:06;;;;;;;;;;;;;;;;;;;;;
2021/03/02 19:02:35;;;;;;;;;;;;;;;;;;;;;
2021/03/02 19:05:38;;;;;;;;;;;;;;;;;;;;;
2021/03/02 19:08:27;;;;;;;21.65;13.38;;;8.80;79.30;;;;;;6055074;23;20077;-85
2021/03/02 19:11:44;;;;;;;;;;;;;;;;;;;;;
2021/03/02 19:14:15;;;;;;;20.55;14.10;;;8.60;79.50;;;;;;6245149;23;20087;-86
2021/03/02 19:17:10;;;;;;;22.75;13.85;;;8.60;79.60;;;;;;6218486;23;20083;-86
2021/03/02 19:19:42;;;;;;;22.27;14.57;;;8.50;79.70;;;;;;6244323;23;20087;-85
2021/03/02 19:22:18;;;;;;;22.88;13.82;;;8.50;79.80;;;;;;6217377;23;20042;-86
2021/03/02 19:25:25;;;;;;;24.23;14.90;;;8.40;79.90;;;;;;6192556;23;20012;-85
2021/03/02 19:28:18;;;;;;;;;;;;;;;;;;;;;
2021/03/02 19:31:10;;;;;;;26.02;15.98;;;8.30;80.10;;;;;;6244140;23;20496;-87
2021/03/02 19:34:03;;;;;;;25.92;16.15;;;8.30;80.30;;;;;;6219065;23;20382;-86
2021/03/02 19:36:33;;;;;;;26.23;16.70;;;8.20;80.40;;;;;;6198722;23;20430;-85
2021/03/02 19:39:46;;;;;;;;;;;;;;;;;;;;;
2021/03/02 19:42:39;;;;;;;;;;;;;;;;;;;;;
2021/03/02 19:45:12;;;;;;;25.83;16.83;;;8.10;80.80;;;;;;6232869;23;20038;-84
2021/03/02 19:47:47;;;;;;;27.55;16.75;;;8.10;80.90;;;;;;6230000;23;20007;-85
2021/03/02 19:50:29;;;;;;;25.42;16.25;;;8.00;80.90;;;;;;6230296;23;20008;-85
2021/03/02 19:52:57;;;;;;;25.38;17.48;;;8.00;81.10;;;;;;6230932;23;20346;-85
2021/03/02 19:56:02;;;;;;;26.08;16.65;;;7.90;81.10;;;;;;6249397;23;20019;-86
2021/03/02 19:59:02;;;;;;;23.88;15.70;;;7.90;81.20;;;;;;6247077;23;20264;-86
2021/03/02 20:01:54;;;;;;;26.05;16.85;;;7.80;81.40;;;;;;6194944;23;20066;-85
2021/03/02 20:04:30;;;;;;;26.23;16.17;;;7.80;81.50;;;;;;6221437;23;20012;-86
2021/03/02 20:07:05;;;;;;;27.00;17.00;;;7.70;81.50;;;;;;6193671;23;20004;-85
2021/03/02 20:12:35;;;;;;;;;;;;;;;;;;;;;
2021/03/02 20:15:07;;;;;;;26.52;16.33;;;7.70;81.80;;;;;;6229515;23;20472;-85
2021/03/02 20:18:25;;;;;;;31.10;17.63;;;7.60;81.80;;;;;;6212479;23;20004;-85
2021/03/02 20:21:03;;;;;;;28.10;16.98;;;7.50;82.00;;;;;;6185928;23;20016;-86
2021/03/02 20:23:41;;;;;;;;;;;;;;;;;;;;;
2021/03/02 20:26:26;;;;;;;;;;;;;;;;;;;;;
2021/03/02 20:29:11;;;;;;;28.10;17.50;;;7.40;82.20;;;;;;6244329;23;20099;-85
2021/03/02 20:31:51;;;;;;;;;;;;;;;;;;;;;
2021/03/02 20:34:30;;;;;;;29.80;18.95;;;7.40;82.30;;;;;;6243668;23;20087;-85
2021/03/02 20:37:22;;;;;;;38.42;23.33;;;7.30;82.40;;;;;;6243552;23;20000;-85
2021/03/02 20:40:09;;;;;;;42.33;24.17;;;7.30;82.50;;;;;;6216108;23;20004;-84
2021/03/02 20:43:04;;;;;;;37.97;23.70;;;7.30;82.60;;;;;;6215236;23;20065;-87
2021/03/02 20:45:59;;;;;;;31.88;20.77;;;7.20;82.60;;;;;;6188067;23;20058;-86
2021/03/02 20:51:43;;;;;;;32.03;20.00;;;7.10;82.70;;;;;;6217390;23;20032;-86
2021/03/02 20:54:17;;;;;;;30.27;19.00;;;7.10;82.80;;;;;;6241524;23;20012;-85
2021/03/02 20:57:13;;;;;;;;;;;;;;;;;;;;;
2021/03/02 20:59:54;;;;;;;26.40;18.45;;;7.00;83.00;;;;;;6229105;23;20096;-85
2021/03/02 21:02:58;;;;;;;26.42;18.75;;;7.00;83.00;;;;;;6219401;23;20004;-85
2021/03/02 21:05:34;;;;;;;31.20;18.27;;;6.90;83.10;;;;;;6216528;23;20005;-86
2021/03/02 21:08:32;;;;;;;30.63;18.95;;;6.90;83.10;;;;;;6193308;23;20016;-85
2021/03/02 21:11:31;;;;;;;;;;;;;;;;;;;;;
2021/03/02 21:21:17;;;;;;;30.02;17.17;;;6.70;83.50;;;;;;6242838;23;20066;-85
2021/03/02 21:24:13;;;;;;;28.90;17.10;;;6.70;83.60;;;;;;6163242;23;20012;-85
2021/03/02 21:27:37;;;;;;;29.15;16.88;;;6.70;83.80;;;;;;6220043;23;20011;-86
2021/03/02 21:30:24;;;;;;;;;;;6.70;84.00;;;;;;6193718;23;20397;-85
2021/03/02 21:33:00;;;;;;;;;;;;;;;;;;;;;
2021/03/02 21:35:28;;;;;;;28.25;15.68;;;6.60;84.10;;;;;;6242461;23;20056;-85
2021/03/02 21:38:03;;;;;;;29.10;16.88;;;6.70;84.80;;;;;;6215570;23;20075;-86
2021/03/02 21:40:36;;;;;;;27.85;16.60;;;6.80;84.20;;;;;;6190737;23;20431;-85
2021/03/02 21:46:23;;;;;;;26.17;17.05;;;6.80;84.10;;;;;;6212506;23;20012;-85
2021/03/02 21:49:14;;;;;;;27.88;18.15;;;6.80;84.20;;;;;;6155063;23;20373;-86
2021/03/02 21:51:57;;;;;;;27.92;17.95;;;6.80;84.30;;;;;;6200911;23;20007;-85
2021/03/02 21:54:38;;;;;;;31.58;18.30;;;6.80;84.40;;;;;;6180512;23;20055;-87
2021/03/02 21:57:32;;;;;;;30.15;17.63;;;6.70;84.50;;;;;;6159030;23;20492;-86
2021/03/02 22:00:21;;;;;;;;;;;;;;;;;;;;;
2021/03/02 22:02:59;;;;;;;31.13;18.75;;;6.70;84.70;;;;;;6188475;23;20099;-85
2021/03/02 22:05:54;;;;;;;31.63;18.38;;;6.70;84.80;;;;;;6162104;23;20028;-85
2021/03/02 22:08:36;;;;;;;32.38;18.50;;;6.70;84.90;;;;;;6212989;23;20068;-85
2021/03/02 22:11:11;;;;;;;26.77;17.02;;;6.60;85.00;;;;;;6187267;23;20007;-86
2021/03/02 22:13:49;;;;;;;28.15;17.13;;;6.60;85.10;;;;;;6162744;23;20723;-86
2021/03/02 22:20:14;;;;;;;31.45;18.10;;;6.60;85.20;;;;;;6213612;23;20059;-85
2021/03/02 22:23:02;;;;;;;;;;;;;;;;;;;;;
2021/03/02 22:25:40;;;;;;;30.10;17.92;;;6.50;85.30;;;;;;6189508;23;20084;-85
2021/03/02 22:28:31;;;;;;;32.22;18.00;;;6.40;85.40;;;;;;6186518;23;20315;-84
2021/03/02 22:31:02;;;;;;;31.67;17.50;;;6.40;85.50;;;;;;6162685;23;20119;-86
2021/03/02 22:33:50;;;;;;;;;;;;;;;;;;;;;
2021/03/02 22:36:28;;;;;;;28.35;17.00;;;6.40;85.50;;;;;;6211975;23;20080;-85
2021/03/02 22:39:06;;;;;;;29.65;18.63;;;6.40;85.50;;;;;;6214034;23;20008;-86
2021/03/02 22:41:34;;;;;;;29.88;17.35;;;6.40;85.50;;;;;;6188457;23;20034;-85
2021/03/02 22:44:03;;;;;;;29.45;18.08;;;6.40;85.60;;;;;;6187115;23;20080;-85
2021/03/02 22:46:59;;;;;;;;;;;;;;;;;;;;;
2021/03/02 22:49:33;;;;;;;31.95;18.30;;;6.40;85.60;;;;;;6200544;23;20498;-86
2021/03/02 22:52:10;;;;;;;29.02;17.23;;;6.40;85.70;;;;;;6188791;23;20378;-85
2021/03/02 22:54:39;;;;;;;30.77;18.80;;;6.40;85.80;;;;;;6193761;23;20131;-84
2021/03/02 22:57:10;;;;;;;32.83;18.33;;;6.30;85.80;;;;;;6190758;23;20004;-84
2021/03/02 22:59:58;;;;;;;;;;;;;;;;;;;;;
2021/03/02 23:02:32;;;;;;;32.53;18.90;;;6.30;85.90;;;;;;6240495;23;20144;-84
2021/03/02 23:05:01;;;;;;;31.25;19.00;;;6.30;85.90;;;;;;6217655;23;20004;-85
2021/03/02 23:07:52;;;;;;;31.33;18.02;;;6.30;86.00;;;;;;6219616;23;19996;-84
2021/03/02 23:10:41;;;;;;;;;;;;;;;;;;;;;
2021/03/02 23:13:14;;;;;;;31.50;18.70;;;6.20;86.00;;;;;;6224470;23;20075;-84
2021/03/02 23:15:51;;;;;;;33.05;19.08;;;6.20;86.10;;;;;;6219718;23;20011;-84
2021/03/02 23:19:10;;;;;;;31.20;18.85;;;6.20;86.20;;;;;;6218225;23;20062;-84
2021/03/02 23:21:41;;;;;;;30.55;18.48;;;6.10;86.20;;;;;;6219678;23;20513;-84
2021/03/02 23:24:23;;;;;;;;;;;;;;;;;;;;;
2021/03/02 23:26:52;;;;;;;30.60;18.52;;;6.10;86.20;;;;;;6245627;23;20091;-84
2021/03/02 23:29:30;;;;;;;31.25;18.90;;;6.10;86.30;;;;;;6189816;23;20008;-85
2021/03/02 23:32:01;;;;;;;33.28;18.27;;;6.00;86.30;;;;;;6215206;23;20079;-85
2021/03/02 23:34:33;;;;;;;31.90;19.50;;;6.00;86.40;;;;;;6218879;23;20003;-84
2021/03/02 23:37:03;;;;;;;32.80;19.17;;;6.00;86.50;;;;;;6244637;23;20004;-84
2021/03/02 23:39:34;;;;;;;29.53;18.13;;;6.00;86.50;;;;;;6196266;23;20008;-85
2021/03/02 23:42:00;;;;;;;27.58;17.30;;;5.90;86.50;;;;;;6194862;23;20262;-85
2021/03/02 23:44:35;;;;;;;33.53;18.70;;;5.90;86.50;;;;;;6219491;23;20279;-84
2021/03/02 23:47:11;;;;;;;27.60;17.48;;;5.90;86.50;;;;;;6219937;23;20424;-84
2021/03/02 23:49:49;;;;;;;31.40;19.45;;;5.90;86.60;;;;;;6218098;23;20015;-84
2021/03/02 23:52:15;;;;;;;30.13;19.00;;;5.90;86.60;;;;;;6208687;23;20346;-85
2021/03/02 23:54:52;;;;;;;28.73;18.25;;;5.90;86.60;;;;;;6211162;23;20003;-85
2021/03/02 23:57:37;;;;;;;29.75;18.40;;;5.80;86.60;;;;;;6186025;23;20774;-85
